Time;durP1;ratioP1;P1;durP2;ratioP2;P2;SDS_P1;SDS_P2;PMS_P1;PMS_P2;Temp;Humidity;BMP_temperature;BMP_pressure;BME280_temperature;BME280_humidity;BME280_pressure;Samples;Min_cycle;Max_cycle;Signal;HPM_P1;HPM_P2
2021/12/30 00:00:38;;;;;;;;;;;7.20;99.90;;;;;;5133798;27;19934;-70
2021/12/30 00:03:05;;;;;;;;;;;7.30;99.90;;;;;;5146563;27;20288;-69
2021/12/30 00:05:31;;;;;;;;;;;7.50;99.90;;;;;;5142443;27;19931;-60
2021/12/30 00:07:56;;;;;;;;;;;7.30;99.90;;;;;;5136065;27;19923;-59
2021/12/30 00:10:22;;;;;;;;;;;7.40;99.90;;;;;;5112877;27;19934;-68
2021/12/30 00:12:47;;;;;;;;;;;7.30;99.90;;;;;;5136424;27;20866;-68
2021/12/30 00:15:13;;;;;;;;;;;7.20;99.90;;;;;;5140655;27;20032;-69
2021/12/30 00:17:39;;;;;;;;;;;7.30;99.90;;;;;;5143145;27;19980;-69
2021/12/30 00:20:06;;;;;;;;;;;7.20;99.90;;;;;;5132485;27;19996;-64
2021/12/30 00:22:32;;;;;;;;;;;7.20;99.90;;;;;;5146781;27;20403;-59
2021/12/30 00:24:58;;;;;;;;;;;7.50;99.90;;;;;;5135639;27;19930;-58
2021/12/30 00:27:23;;;;;;;;;;;7.20;99.90;;;;;;5143642;27;19971;-67
2021/12/30 00:29:49;;;;;;;;;;;7.20;99.90;;;;;;5133336;27;20015;-59
2021/12/30 00:32:14;;;;;;;;;;;7.20;99.90;;;;;;5137800;27;20586;-59
2021/12/30 00:34:40;;;;;;;;;;;7.40;99.90;;;;;;5142181;27;19974;-58
2021/12/30 00:37:06;;;;;;;;;;;7.30;99.90;;;;;;5138069;27;19934;-69
2021/12/30 00:39:31;;;;;;;;;;;7.30;99.90;;;;;;5137206;27;19934;-68
2021/12/30 00:41:57;;;;;;;;;;;7.30;99.90;;;;;;5129371;27;19927;-68
2021/12/30 00:44:22;;;;;;;;;;;7.40;99.90;;;;;;5132177;27;19927;-69
2021/12/30 00:46:48;;;;;;;;;;;7.40;99.90;;;;;;5146130;27;19954;-69
2021/12/30 00:49:14;;;;;;;;;;;7.40;99.90;;;;;;5132347;27;19972;-69
2021/12/30 00:51:40;;;;;;;;;;;7.40;99.90;;;;;;5147791;27;19922;-65
2021/12/30 00:54:05;;;;;;;;;;;7.50;99.90;;;;;;5132864;27;19928;-58
2021/12/30 00:56:31;;;;;;;;;;;7.50;99.90;;;;;;5146268;27;19949;-63
2021/12/30 00:58:57;;;;;;;;;;;7.40;99.90;;;;;;5136306;27;19934;-60
2021/12/30 01:01:24;;;;;;;;;;;7.50;99.90;;;;;;5138614;27;20344;-59
2021/12/30 01:03:50;;;;;;;;;;;7.40;99.90;;;;;;5131363;27;19980;-58
2021/12/30 01:06:16;;;;;;;;;;;7.40;99.90;;;;;;5145471;27;19927;-58
2021/12/30 01:08:42;;;;;;;;;;;7.50;99.90;;;;;;5109725;27;20381;-62
2021/12/30 01:11:08;;;;;;;;;;;7.40;99.90;;;;;;5137738;27;19927;-58
2021/12/30 01:13:39;;;;;;;;;;;7.40;99.90;;;;;;5135572;27;20017;-58
2021/12/30 01:16:14;;;;;;;;;;;7.30;99.90;;;;;;5144219;27;19927;-58
2021/12/30 01:21:07;;;;;;;;;;;7.30;99.90;;;;;;5140044;27;19927;-58
2021/12/30 01:23:33;;;;;;;;;;;7.20;99.90;;;;;;5141595;27;19927;-56
2021/12/30 01:25:59;;;;;;;;;;;7.20;99.90;;;;;;5145918;27;20356;-57
2021/12/30 01:28:26;;;;;;;;;;;7.20;99.90;;;;;;5132431;27;20358;-57
2021/12/30 01:30:51;;;;;;;;;;;8.50;99.90;;;;;;5142952;27;20312;-57
2021/12/30 01:33:17;;;;;;;;;;;7.20;99.90;;;;;;5138274;27;19927;-57
2021/12/30 01:35:43;;;;;;;;;;;7.20;99.90;;;;;;5135300;27;19934;-56
2021/12/30 01:38:12;;;;;;;;;;;7.20;99.90;;;;;;5145542;27;19931;-56
2021/12/30 01:40:39;;;;;;;;;;;7.20;99.90;;;;;;5128569;27;20010;-57
2021/12/30 01:43:05;;;;;;;;;;;7.20;99.90;;;;;;5132664;27;19927;-59
2021/12/30 01:45:30;;;;;;;;;;;7.30;99.90;;;;;;5136458;27;19932;-60
2021/12/30 01:47:57;;;;;;;;;;;7.20;99.90;;;;;;5137291;27;19979;-56
2021/12/30 01:50:23;;;;;;;;;;;7.20;99.90;;;;;;5139085;27;19927;-57
2021/12/30 01:52:49;;;;;;;;;;;7.10;99.90;;;;;;5143170;27;19927;-56
2021/12/30 01:55:16;;;;;;;;;;;7.10;99.90;;;;;;5137061;27;19927;-57
2021/12/30 01:57:41;;;;;;;;;;;7.30;99.90;;;;;;5134997;27;19974;-55
2021/12/30 02:00:09;;;;;;;;;;;7.20;99.90;;;;;;5138734;27;20004;-58
2021/12/30 02:02:34;;;;;;;;;;;7.10;99.90;;;;;;5146536;27;19991;-63
2021/12/30 02:05:00;;;;;;;;;;;7.20;99.90;;;;;;5142995;27;19932;-67
2021/12/30 02:07:26;;;;;;;;;;;7.20;99.90;;;;;;5140988;27;20369;-65
2021/12/30 02:09:53;;;;;;;;;;;7.30;99.90;;;;;;5133222;27;20006;-57
2021/12/30 02:12:19;;;;;;;;;;;7.20;99.90;;;;;;5130446;27;19931;-61
2021/12/30 02:14:44;;;;;;;;;;;7.20;99.90;;;;;;5142780;27;19951;-56
2021/12/30 02:17:10;;;;;;;;;;;7.20;99.90;;;;;;5136774;27;19934;-57
2021/12/30 02:19:35;;;;;;;;;;;7.20;99.90;;;;;;5137926;27;20407;-57
2021/12/30 02:22:02;;;;;;;;;;;7.20;99.90;;;;;;5149017;27;20337;-57
2021/12/30 02:24:27;;;;;;;;;;;7.20;99.90;;;;;;5135350;27;19952;-56
2021/12/30 02:26:53;;;;;;;;;;;7.10;99.90;;;;;;5145281;27;19927;-56
2021/12/30 02:29:19;;;;;;;;;;;7.10;99.90;;;;;;5142017;27;19927;-56
2021/12/30 02:31:44;;;;;;;;;;;7.30;99.90;;;;;;5139056;27;19962;-59
2021/12/30 02:34:10;;;;;;;;;;;7.10;99.90;;;;;;5149542;27;19933;-56
2021/12/30 02:36:37;;;;;;;;;;;7.10;99.90;;;;;;5136447;27;19933;-60
2021/12/30 02:39:05;;;;;;;;;;;7.10;99.90;;;;;;5143735;27;20135;-56
2021/12/30 02:41:34;;;;;;;;;;;7.10;99.90;;;;;;5131730;27;19931;-56
2021/12/30 02:44:00;;;;;;;;;;;7.10;99.90;;;;;;5131707;27;19992;-58
2021/12/30 02:46:29;;;;;;;;;;;7.10;99.90;;;;;;5146704;27;20335;-60
2021/12/30 02:48:59;;;;;;;;;;;7.10;99.90;;;;;;5137254;27;19934;-57
2021/12/30 02:51:24;;;;;;;;;;;7.60;99.90;;;;;;5143388;27;19927;-56
2021/12/30 02:53:50;;;;;;;;;;;7.40;99.90;;;;;;5137316;27;20448;-56
2021/12/30 02:56:16;;;;;;;;;;;7.10;99.90;;;;;;5148596;27;19974;-56
2021/12/30 02:58:42;;;;;;;;;;;7.10;99.90;;;;;;5136962;27;19980;-56
2021/12/30 03:01:09;;;;;;;;;;;7.30;99.90;;;;;;5143003;27;19931;-56
2021/12/30 03:03:35;;;;;;;;;;;7.10;99.90;;;;;;5128088;27;20487;-57
2021/12/30 03:06:02;;;;;;;;;;;7.10;99.90;;;;;;5141660;27;19927;-56
2021/12/30 03:08:28;;;;;;;;;;;7.20;99.90;;;;;;5131987;27;20349;-56
2021/12/30 03:10:53;;;;;;;;;;;7.20;99.90;;;;;;5140852;27;19950;-56
2021/12/30 03:13:25;;;;;;;;;;;7.20;99.90;;;;;;5144483;27;19927;-60
2021/12/30 03:15:51;;;;;;;;;;;7.30;99.90;;;;;;5145145;27;20442;-56
2021/12/30 03:18:17;;;;;;;;;;;7.40;99.90;;;;;;5142799;27;19962;-57
2021/12/30 03:20:43;;;;;;;;;;;7.40;99.90;;;;;;5141437;27;19980;-56
2021/12/30 03:23:08;;;;;;;;;;;7.50;99.90;;;;;;5143873;27;19931;-56
2021/12/30 03:25:34;;;;;;;;;;;7.70;99.90;;;;;;5132039;27;19927;-56
2021/12/30 03:28:00;;;;;;;;;;;7.50;99.90;;;;;;5139138;27;19927;-56
2021/12/30 03:30:26;;;;;;;;;;;7.60;99.90;;;;;;5132824;27;19934;-57
2021/12/30 03:32:51;;;;;;;;;;;7.60;99.90;;;;;;5139821;27;20018;-57
2021/12/30 03:35:17;;;;;;;;;;;7.70;99.90;;;;;;5139603;27;19973;-57
2021/12/30 03:37:43;;;;;;;;;;;7.80;99.90;;;;;;5144119;27;19934;-59
2021/12/30 03:40:11;;;;;;;;;;;7.80;99.90;;;;;;5132536;27;19974;-56
2021/12/30 03:42:36;;;;;;;;;;;7.80;99.90;;;;;;5131081;27;20342;-60
2021/12/30 03:45:03;;;;;;;;;;;7.80;99.90;;;;;;5142936;27;19927;-57
2021/12/30 03:47:29;;;;;;;;;;;7.90;99.90;;;;;;5142436;27;19934;-56
2021/12/30 03:49:55;;;;;;;;;;;7.80;99.90;;;;;;5135081;27;19927;-57
2021/12/30 03:52:26;;;;;;;;;;;7.80;99.90;;;;;;5139414;27;20565;-56
2021/12/30 03:54:52;;;;;;;;;;;7.80;99.90;;;;;;5142166;27;19950;-57
2021/12/30 03:57:18;;;;;;;;;;;7.80;99.90;;;;;;5138617;27;20364;-58
2021/12/30 03:59:43;;;;;;;;;;;7.80;99.90;;;;;;5136347;27;20386;-59
2021/12/30 04:02:09;;;;;;;;;;;7.80;99.90;;;;;;5147128;27;19941;-57
2021/12/30 04:04:35;;;;;;;;;;;7.80;99.90;;;;;;5145037;27;20490;-56
2021/12/30 04:07:00;;;;;;;;;;;7.80;99.90;;;;;;5130514;27;19927;-57
2021/12/30 04:09:26;;;;;;;;;;;7.80;99.90;;;;;;5146892;27;19927;-57
2021/12/30 04:11:52;;;;;;;;;;;7.80;99.90;;;;;;5133800;27;20411;-59
2021/12/30 04:14:18;;;;;;;;;;;7.90;99.90;;;;;;5147003;27;20204;-58
2021/12/30 04:16:43;;;;;;;;;;;7.90;99.90;;;;;;5135775;27;19978;-59
2021/12/30 04:19:09;;;;;;;;;;;7.90;99.90;;;;;;5141251;27;19927;-60
2021/12/30 04:21:35;;;;;;;;;;;8.00;99.90;;;;;;5141076;27;20366;-60
2021/12/30 04:24:00;;;;;;;;;;;7.90;99.90;;;;;;5131844;27;19988;-59
2021/12/30 04:26:26;;;;;;;;;;;8.00;99.90;;;;;;5146587;27;19950;-57
2021/12/30 04:28:51;;;;;;;;;;;8.00;99.90;;;;;;5135222;27;19929;-59
2021/12/30 04:31:17;;;;;;;;;;;8.10;99.90;;;;;;5132982;27;19927;-56
2021/12/30 04:33:43;;;;;;;;;;;8.00;99.90;;;;;;5144155;27;19927;-56
2021/12/30 04:36:08;;;;;;;;;;;8.10;99.90;;;;;;5133296;27;19927;-56
2021/12/30 04:38:35;;;;;;;;;;;8.10;99.90;;;;;;5145759;27;19963;-56
2021/12/30 04:41:00;;;;;;;;;;;8.30;99.90;;;;;;5128727;27;19927;-56
2021/12/30 04:43:26;;;;;;;;;;;8.70;99.90;;;;;;5129135;27;20342;-56
2021/12/30 04:45:52;;;;;;;;;;;8.40;99.90;;;;;;5133767;27;20410;-55
2021/12/30 04:48:18;;;;;;;;;;;8.20;99.90;;;;;;5145702;27;19952;-56
2021/12/30 04:50:47;;;;;;;;;;;8.20;99.90;;;;;;5133117;27;19931;-57
2021/12/30 04:53:14;;;;;;;;;;;8.30;99.90;;;;;;5140366;27;20150;-58
2021/12/30 04:55:39;;;;;;;;;;;8.30;99.90;;;;;;5143419;27;19937;-56
2021/12/30 04:58:05;;;;;;;;;;;8.30;99.90;;;;;;5132334;27;19927;-57
2021/12/30 05:00:31;;;;;;;;;;;8.80;99.90;;;;;;5144837;27;20017;-57
2021/12/30 05:03:13;;;;;;;;;;;8.40;99.90;;;;;;5131379;27;19971;-57
2021/12/30 05:05:42;;;;;;;;;;;8.50;99.90;;;;;;5142799;27;19974;-56
2021/12/30 05:08:08;;;;;;;;;;;8.30;99.90;;;;;;5134769;27;19934;-59
2021/12/30 05:10:33;;;;;;;;;;;8.40;99.90;;;;;;5129223;27;19927;-56
2021/12/30 05:12:59;;;;;;;;;;;8.40;99.90;;;;;;5140903;27;19931;-56
2021/12/30 05:15:25;;;;;;;;;;;8.50;99.90;;;;;;5137657;27;20361;-56
2021/12/30 05:17:51;;;;;;;;;;;8.50;99.90;;;;;;5134141;27;19934;-57
2021/12/30 05:20:16;;;;;;;;;;;8.50;99.90;;;;;;5145824;27;19995;-59
2021/12/30 05:22:42;;;;;;;;;;;8.60;99.90;;;;;;5134407;27;19934;-56
2021/12/30 05:25:08;;;;;;;;;;;8.60;99.90;;;;;;5145668;27;19927;-59
2021/12/30 05:27:35;;;;;;;;;;;8.70;99.90;;;;;;5136243;27;19969;-57
2021/12/30 05:30:00;;;;;;;;;;;8.70;99.90;;;;;;5145717;27;19979;-57
2021/12/30 05:32:26;;;;;;;;;;;8.70;99.90;;;;;;5131869;27;19931;-56
2021/12/30 05:34:51;;;;;;;;;;;8.80;99.90;;;;;;5141348;27;19934;-57
2021/12/30 05:37:17;;;;;;;;;;;8.80;99.90;;;;;;5139411;27;19927;-56
2021/12/30 05:39:43;;;;;;;;;;;8.90;99.90;;;;;;5135127;27;19928;-57
2021/12/30 05:42:08;;;;;;;;;;;9.00;99.90;;;;;;5128608;27;20375;-57
2021/12/30 05:44:34;;;;;;;;;;;9.10;99.90;;;;;;5141957;27;20373;-56
2021/12/30 05:46:59;;;;;;;;;;;9.20;99.90;;;;;;5136136;27;19927;-58
2021/12/30 05:49:25;;;;;;;;;;;9.20;99.90;;;;;;5136505;27;19928;-59
2021/12/30 05:51:50;;;;;;;;;;;9.40;99.90;;;;;;5143841;27;19927;-56
2021/12/30 05:54:16;;;;;;;;;;;9.30;99.90;;;;;;5135378;27;20072;-57
2021/12/30 05:56:42;;;;;;;;;;;9.40;99.90;;;;;;5148098;27;19927;-56
2021/12/30 05:59:07;;;;;;;;;;;9.40;99.90;;;;;;5142065;27;19944;-56
2021/12/30 06:01:33;;;;;;;;;;;9.60;99.90;;;;;;5142646;27;20248;-56
2021/12/30 06:03:58;;;;;;;;;;;9.70;99.90;;;;;;5138948;27;19931;-56
2021/12/30 06:06:24;;;;;;;;;;;9.40;99.90;;;;;;5135489;27;19975;-56
2021/12/30 06:08:51;;;;;;;;;;;9.40;99.90;;;;;;5137163;27;19970;-56
2021/12/30 06:11:17;;;;;;;;;;;9.40;99.90;;;;;;5142522;27;19971;-56
2021/12/30 06:13:43;;;;;;;;;;;9.50;99.90;;;;;;5138136;27;19962;-56
2021/12/30 06:16:08;;;;;;;;;;;9.50;99.90;;;;;;5144938;27;20068;-57
2021/12/30 06:18:34;;;;;;;;;;;9.50;99.90;;;;;;5137175;27;20318;-59
2021/12/30 06:20:59;;;;;;;;;;;9.50;99.90;;;;;;5144721;27;20044;-58
2021/12/30 06:23:25;;;;;;;;;;;9.60;99.90;;;;;;5142431;27;20014;-57
2021/12/30 06:25:51;;;;;;;;;;;9.60;99.90;;;;;;5140653;27;19927;-60
2021/12/30 06:28:17;;;;;;;;;;;9.60;99.90;;;;;;5137329;27;19959;-58
2021/12/30 06:30:42;;;;;;;;;;;9.70;99.90;;;;;;5139170;27;19928;-60
2021/12/30 06:33:08;;;;;;;;;;;9.70;99.90;;;;;;5131142;27;20294;-58
2021/12/30 06:35:34;;;;;;;;;;;9.70;99.90;;;;;;5131556;27;19931;-57
2021/12/30 06:38:03;;;;;;;;;;;9.80;99.90;;;;;;5148563;27;19927;-57
2021/12/30 06:40:28;;;;;;;;;;;9.80;99.90;;;;;;5131916;27;19992;-57
2021/12/30 06:42:54;;;;;;;;;;;9.80;99.90;;;;;;5139085;27;19931;-57
2021/12/30 06:45:20;;;;;;;;;;;9.90;99.90;;;;;;5151619;27;19995;-57
2021/12/30 06:47:46;;;;;;;;;;;9.90;99.90;;;;;;5117333;27;19923;-58
2021/12/30 06:50:13;;;;;;;;;;;9.90;99.90;;;;;;5148531;27;19927;-62
2021/12/30 06:52:39;;;;;;;;;;;9.90;99.90;;;;;;5134764;27;19931;-61
2021/12/30 06:55:05;;;;;;;;;;;9.90;99.90;;;;;;5143071;27;20380;-59
2021/12/30 06:57:31;;;;;;;;;;;9.90;99.90;;;;;;5142483;27;19934;-59
2021/12/30 06:59:57;;;;;;;;;;;10.00;99.90;;;;;;5135765;27;19930;-61
2021/12/30 07:02:22;;;;;;;;;;;10.10;99.90;;;;;;5148447;27;19977;-61
2021/12/30 07:04:48;;;;;;;;;;;10.00;99.90;;;;;;5145307;27;19971;-61
2021/12/30 07:07:13;;;;;;;;;;;10.00;99.90;;;;;;5147241;27;19934;-56
2021/12/30 07:09:39;;;;;;;;;;;9.90;99.90;;;;;;5148404;27;19927;-62
2021/12/30 07:12:05;;;;;;;;;;;10.10;99.90;;;;;;5135090;27;19970;-61
2021/12/30 07:14:31;;;;;;;;;;;10.00;99.90;;;;;;5147006;27;19927;-56
2021/12/30 07:16:56;;;;;;;;;;;10.10;99.90;;;;;;5138416;27;19978;-62
2021/12/30 07:19:22;;;;;;;;;;;10.00;99.90;;;;;;5140272;27;20354;-57
2021/12/30 07:21:50;;;;;;;;;;;10.00;99.90;;;;;;5145187;27;20010;-59
2021/12/30 07:24:16;;;;;;;;;;;10.10;99.90;;;;;;5135742;27;19942;-57
2021/12/30 07:26:42;;;;;;;;;;;10.10;99.90;;;;;;5135243;27;19927;-56
2021/12/30 07:29:07;;;;;;;;;;;10.10;99.90;;;;;;5149786;27;19934;-59
2021/12/30 07:31:33;;;;;;;;;;;10.10;99.90;;;;;;5137659;27;19934;-56
2021/12/30 07:33:58;;;;;;;;;;;10.20;99.90;;;;;;5148326;27;19937;-56
2021/12/30 07:36:24;;;;;;;;;;;10.10;99.90;;;;;;5134307;27;19927;-56
2021/12/30 07:38:50;;;;;;;;;;;10.20;99.90;;;;;;5144500;27;19971;-57
2021/12/30 07:41:15;;;;;;;;;;;10.20;99.90;;;;;;5131171;27;19927;-56
2021/12/30 07:43:41;;;;;;;;;;;10.30;99.90;;;;;;5130551;27;20441;-57
2021/12/30 07:46:09;;;;;;;;;;;10.30;99.90;;;;;;5147072;27;20552;-59
2021/12/30 07:48:35;;;;;;;;;;;10.30;99.90;;;;;;5134294;27;20018;-57
2021/12/30 07:51:01;;;;;;;;;;;10.40;99.90;;;;;;5135964;27;20014;-59
2021/12/30 07:53:26;;;;;;;;;;;10.40;99.90;;;;;;5128659;27;19982;-59
2021/12/30 07:55:52;;;;;;;;;;;10.40;99.90;;;;;;5142063;27;19934;-59
2021/12/30 07:58:17;;;;;;;;;;;10.50;99.90;;;;;;5139607;27;19934;-66
2021/12/30 08:00:43;;;;;;;;;;;10.50;99.90;;;;;;5138041;27;19926;-63
2021/12/30 08:03:08;;;;;;;;;;;10.50;99.90;;;;;;5132438;27;19976;-60
2021/12/30 08:05:34;;;;;;;;;;;10.50;99.90;;;;;;5142700;27;19950;-64
2021/12/30 08:08:00;;;;;;;;;;;10.50;99.90;;;;;;5137415;27;19924;-66
2021/12/30 08:10:26;;;;;;;;;;;10.60;99.90;;;;;;5132186;27;19934;-66
2021/12/30 08:12:54;;;;;;;;;;;10.60;99.90;;;;;;5134197;27;19934;-66
2021/12/30 08:15:19;;;;;;;;;;;10.70;99.90;;;;;;5129916;27;19927;-63
2021/12/30 08:17:46;;;;;;;;;;;10.70;99.90;;;;;;5129525;27;19927;-63
2021/12/30 08:20:12;;;;;;;;;;;10.70;99.90;;;;;;5135417;27;20288;-57
2021/12/30 08:22:38;;;;;;;;;;;10.70;99.90;;;;;;5131660;27;19980;-57
2021/12/30 08:25:04;;;;;;;;;;;10.60;99.90;;;;;;5139158;27;19927;-58
2021/12/30 08:27:30;;;;;;;;;;;10.70;99.90;;;;;;5137116;27;19986;-61
2021/12/30 08:29:55;;;;;;;;;;;10.70;99.90;;;;;;5137348;27;19973;-59
2021/12/30 08:32:21;;;;;;;;;;;10.70;99.90;;;;;;5135910;27;19930;-65
2021/12/30 08:34:46;;;;;;;;;;;10.80;99.90;;;;;;5143823;27;20006;-60
2021/12/30 08:37:12;;;;;;;;;;;10.90;99.90;;;;;;5131078;27;19927;-61
2021/12/30 08:39:41;;;;;;;;;;;11.00;99.90;;;;;;5132742;27;19956;-60
2021/12/30 08:42:20;;;;;;;;;;;11.00;99.90;;;;;;5141514;27;19971;-63
2021/12/30 08:44:46;;;;;;;;;;;10.90;99.90;;;;;;5136910;27;20419;-58
2021/12/30 08:47:12;;;;;;;;;;;10.90;99.90;;;;;;5134615;27;19928;-64
2021/12/30 08:49:41;;;;;;;;;;;11.00;99.90;;;;;;5125771;27;19931;-62
2021/12/30 08:52:07;;;;;;;;;;;11.00;99.90;;;;;;5127015;27;19934;-63
2021/12/30 08:54:35;;;;;;;;;;;11.00;99.90;;;;;;5138845;27;19927;-61
2021/12/30 08:57:01;;;;;;;;;;;11.00;99.90;;;;;;5126315;27;20021;-65
2021/12/30 08:59:26;;;;;;;;;;;11.10;99.90;;;;;;5130733;27;20079;-63
2021/12/30 09:01:52;;;;;;;;;;;10.70;99.90;;;;;;5134865;27;19934;-56
2021/12/30 09:04:17;;;;;;;;;;;11.10;99.90;;;;;;5124788;27;19935;-58
2021/12/30 09:06:43;;;;;;;;;;;11.10;99.90;;;;;;5133188;27;19927;-57
2021/12/30 09:09:08;;;;;;;;;;;11.10;99.90;;;;;;5133250;27;19931;-57
2021/12/30 09:11:34;;;;;;;;;;;11.10;99.90;;;;;;5128190;27;19927;-62
2021/12/30 09:14:00;;;;;;;;;;;11.10;99.90;;;;;;5129891;27;19928;-63
2021/12/30 09:16:25;;;;;;;;;;;11.20;99.90;;;;;;5134832;27;19950;-58
2021/12/30 09:18:51;;;;;;;;;;;11.20;99.90;;;;;;5138240;27;19927;-56
2021/12/30 09:21:16;;;;;;;;;;;11.20;99.90;;;;;;5122359;27;19928;-56
2021/12/30 09:23:42;;;;;;;;;;;11.20;99.90;;;;;;5131824;27;19927;-58
2021/12/30 09:26:08;;;;;;;;;;;11.20;99.90;;;;;;5127981;27;20387;-59
2021/12/30 09:28:33;;;;;;;;;;;11.20;99.90;;;;;;5140361;27;19928;-57
2021/12/30 09:30:59;;;;;;;;;;;11.30;99.90;;;;;;5128812;27;20402;-56
2021/12/30 09:33:25;;;;;;;;;;;11.30;99.90;;;;;;5128086;27;19942;-57
2021/12/30 09:35:51;;;;;;;;;;;11.30;99.90;;;;;;5136681;27;19927;-58
2021/12/30 09:38:16;;;;;;;;;;;11.40;99.90;;;;;;5128231;27;20555;-57
2021/12/30 09:40:42;;;;;;;;;;;11.40;99.90;;;;;;5126938;27;20544;-56
2021/12/30 09:43:09;;;;;;;;;;;11.40;99.90;;;;;;5129531;27;20343;-56
2021/12/30 09:45:38;;;;;;;;;;;11.40;99.90;;;;;;5133663;27;19927;-57
2021/12/30 09:48:04;;;;;;;;;;;11.40;99.90;;;;;;5133221;27;20423;-56
2021/12/30 09:50:32;;;;;;;;;;;11.40;99.90;;;;;;5137629;27;19931;-56
2021/12/30 09:52:59;;;;;;;;;;;11.50;99.90;;;;;;5130022;27;20352;-56
2021/12/30 09:55:25;;;;;;;;;;;11.50;99.90;;;;;;5112548;27;20025;-56
2021/12/30 09:57:52;;;;;;;;;;;11.50;99.90;;;;;;5138764;27;19927;-57
2021/12/30 10:00:18;;;;;;;;;;;11.40;99.90;;;;;;5127707;27;19927;-58
2021/12/30 10:02:44;;;;;;;;;;;11.50;99.90;;;;;;5133997;27;19927;-57
2021/12/30 10:05:11;;;;;;;;;;;11.50;99.90;;;;;;5132804;27;20308;-57
2021/12/30 10:07:39;;;;;;;;;;;11.50;99.90;;;;;;5136133;27;19927;-56
2021/12/30 10:10:23;;;;;;;;;;;11.50;99.90;;;;;;5140481;27;19931;-56
2021/12/30 10:12:49;;;;;;;;;;;11.50;99.90;;;;;;5135688;27;20405;-56
2021/12/30 10:15:15;;;;;;;;;;;11.60;99.90;;;;;;5129340;27;19945;-57
2021/12/30 10:17:40;;;;;;;;;;;11.60;99.90;;;;;;5110742;27;20288;-59
2021/12/30 10:20:15;;;;;;;;;;;11.60;99.90;;;;;;5142102;27;19933;-56
2021/12/30 10:22:41;;;;;;;;;;;11.60;99.90;;;;;;5128963;27;20000;-57
2021/12/30 10:25:27;;;;;;;;;;;11.60;99.90;;;;;;5130237;27;20308;-56
2021/12/30 10:27:53;;;;;;;;;;;11.60;99.90;;;;;;5131693;27;19927;-57
2021/12/30 10:30:32;;;;;;;;;;;11.60;99.90;;;;;;5126655;27;19938;-56
2021/12/30 10:33:14;;;;;;;;;;;11.60;99.90;;;;;;5127632;27;19965;-57
2021/12/30 10:35:40;;;;;;;;;;;11.50;99.90;;;;;;5134514;27;20304;-56
2021/12/30 10:38:09;;;;;;;;;;;11.60;99.90;;;;;;5128910;27;19923;-56
2021/12/30 10:40:36;;;;;;;;;;;11.60;99.90;;;;;;5132894;27;19977;-56
2021/12/30 10:43:17;;;;;;;;;;;11.50;99.90;;;;;;5128932;27;19927;-57
2021/12/30 10:45:42;;;;;;;;;;;11.60;99.90;;;;;;5133015;27;20034;-56
2021/12/30 10:48:08;;;;;;;;;;;11.60;99.90;;;;;;5130405;27;20398;-57
2021/12/30 10:50:34;;;;;;;;;;;11.60;99.90;;;;;;5128837;27;19931;-57
2021/12/30 10:53:00;;;;;;;;;;;11.50;99.90;;;;;;5129525;27;19934;-57
2021/12/30 10:55:25;;;;;;;;;;;11.50;99.90;;;;;;5136391;27;19930;-58
2021/12/30 10:57:51;;;;;;;;;;;11.50;99.90;;;;;;5131122;27;19927;-56
2021/12/30 11:00:25;;;;;;;;;;;11.50;99.90;;;;;;5135226;27;19926;-56
2021/12/30 11:02:51;;;;;;;;;;;11.50;99.90;;;;;;5130961;27;19927;-57
2021/12/30 11:05:18;;;;;;;;;;;11.50;99.90;;;;;;5141123;27;19927;-57
2021/12/30 11:07:43;;;;;;;;;;;11.50;99.90;;;;;;5136290;27;20502;-56
2021/12/30 11:10:10;;;;;;;;;;;11.50;99.90;;;;;;5133922;27;20400;-57
2021/12/30 11:12:41;;;;;;;;;;;11.60;99.90;;;;;;5129905;27;20399;-58
2021/12/30 11:15:17;;;;;;;;;;;11.60;99.90;;;;;;5138913;27;20624;-57
2021/12/30 11:17:43;;;;;;;;;;;11.60;99.90;;;;;;5139656;27;19945;-57
2021/12/30 11:20:09;;;;;;;;;;;11.50;99.90;;;;;;5140773;27;19931;-57
2021/12/30 11:22:35;;;;;;;;;;;11.60;99.90;;;;;;5131123;27;19927;-56
2021/12/30 11:25:03;;;;;;;;;;;11.50;99.90;;;;;;5133579;27;20349;-57
2021/12/30 11:27:29;;;;;;;;;;;11.50;99.90;;;;;;5138060;27;19951;-56
2021/12/30 11:29:59;;;;;;;;;;;11.50;99.90;;;;;;5132409;27;20387;-57
2021/12/30 11:32:27;;;;;;;;;;;11.50;99.90;;;;;;5130279;27;20400;-57
2021/12/30 11:34:53;;;;;;;;;;;11.50;99.90;;;;;;5139851;27;19927;-57
2021/12/30 11:37:19;;;;;;;;;;;11.50;99.90;;;;;;5136711;27;19928;-57
2021/12/30 11:39:53;;;;;;;;;;;11.50;99.90;;;;;;5126962;27;19927;-57
2021/12/30 11:42:29;;;;;;;;;;;11.50;99.90;;;;;;5126980;27;19927;-59
2021/12/30 11:44:56;;;;;;;;;;;11.50;99.90;;;;;;5134410;27;19934;-57
2021/12/30 11:47:34;;;;;;;;;;;11.50;99.90;;;;;;5129380;27;19927;-60
2021/12/30 11:50:18;;;;;;;;;;;11.50;99.90;;;;;;5128982;27;19976;-59
2021/12/30 11:52:47;;;;;;;;;;;11.50;99.90;;;;;;5138951;27;20388;-56
2021/12/30 11:55:32;;;;;;;;;;;11.50;99.90;;;;;;5126845;27;19931;-59
2021/12/30 11:58:17;;;;;;;;;;;11.60;99.90;;;;;;5124414;27;20028;-59
2021/12/30 12:00:43;;;;;;;;;;;11.60;99.90;;;;;;5132533;27;20712;-59
2021/12/30 12:03:27;;;;;;;;;;;11.60;99.90;;;;;;5143561;27;19955;-57
2021/12/30 12:05:53;;;;;;;;;;;11.60;99.90;;;;;;5133651;27;19926;-56
2021/12/30 12:08:19;;;;;;;;;;;11.60;99.90;;;;;;5131194;27;20425;-59
2021/12/30 12:11:04;;;;;;;;;;;11.60;99.90;;;;;;5139732;27;19927;-57
2021/12/30 12:13:34;;;;;;;;;;;11.60;99.90;;;;;;5128144;27;19935;-57
2021/12/30 12:16:02;;;;;;;;;;;11.60;99.90;;;;;;5144375;27;20441;-56
2021/12/30 12:18:29;;;;;;;;;;;11.60;99.90;;;;;;5127430;27;19966;-58
2021/12/30 12:20:57;;;;;;;;;;;11.60;99.90;;;;;;5135319;27;19928;-57
2021/12/30 12:23:28;;;;;;;;;;;11.70;99.90;;;;;;5133687;27;19935;-57
2021/12/30 12:26:06;;;;;;;;;;;11.70;99.90;;;;;;5140442;27;19927;-57
2021/12/30 12:28:32;;;;;;;;;;;11.70;99.90;;;;;;5131605;27;19967;-56
2021/12/30 12:30:57;;;;;;;;;;;11.80;99.90;;;;;;5131025;27;19974;-57
2021/12/30 12:33:28;;;;;;;;;;;11.80;99.90;;;;;;5138264;27;20247;-56
2021/12/30 12:35:54;;;;;;;;;;;11.90;99.90;;;;;;5131053;27;19976;-59
2021/12/30 12:38:36;;;;;;;;;;;11.90;99.90;;;;;;5142416;27;20086;-57
2021/12/30 12:41:14;;;;;;;;;;;11.90;99.90;;;;;;5138072;27;19934;-57
2021/12/30 12:43:40;;;;;;;;;;;11.90;99.90;;;;;;5126793;27;20057;-57
2021/12/30 12:46:05;;;;;;;;;;;11.90;99.90;;;;;;5131065;27;20057;-58
2021/12/30 12:48:32;;;;;;;;;;;11.90;99.90;;;;;;5140548;27;19927;-56
2021/12/30 12:51:01;;;;;;;;;;;11.90;99.90;;;;;;5124344;27;19928;-60
2021/12/30 12:53:27;;;;;;;;;;;11.80;99.90;;;;;;5134317;27;19934;-57
2021/12/30 12:55:56;;;;;;;;;;;11.80;99.90;;;;;;5141254;27;19927;-57
2021/12/30 12:58:23;;;;;;;;;;;11.80;99.90;;;;;;5129216;27;20558;-57
2021/12/30 13:00:49;;;;;;;;;;;11.80;99.90;;;;;;5129839;27;20381;-56
2021/12/30 13:03:15;;;;;;;;;;;11.80;99.90;;;;;;5128059;27;19934;-57
2021/12/30 13:06:01;;;;;;;;;;;11.80;99.90;;;;;;5134223;27;20284;-59
2021/12/30 13:08:27;;;;;;;;;;;11.80;99.90;;;;;;5132314;27;19970;-57
2021/12/30 13:10:53;;;;;;;;;;;11.80;99.90;;;;;;5126266;27;19927;-57
2021/12/30 13:13:34;;;;;;;;;;;11.80;99.90;;;;;;5131278;27;20436;-58
2021/12/30 13:16:01;;;;;;;;;;;11.80;99.90;;;;;;5135005;27;19934;-56
2021/12/30 13:18:26;;;;;;;;;;;11.80;99.90;;;;;;5130162;27;20455;-56
2021/12/30 13:20:52;;;;;;;;;;;11.80;99.90;;;;;;5132521;27;19983;-61
2021/12/30 13:23:27;;;;;;;;;;;11.80;99.90;;;;;;5130988;27;20407;-57
2021/12/30 13:25:58;;;;;;;;;;;11.70;99.90;;;;;;5141682;27;19927;-57
2021/12/30 13:28:24;;;;;;;;;;;11.80;99.90;;;;;;5136451;27;19935;-65
2021/12/30 13:30:50;;;;;;;;;;;11.70;99.90;;;;;;5137553;27;19934;-62
2021/12/30 13:33:16;;;;;;;;;;;11.70;99.90;;;;;;5130583;27;20342;-58
2021/12/30 13:35:42;;;;;;;;;;;11.70;99.90;;;;;;5136573;27;19962;-58
2021/12/30 13:38:08;;;;;;;;;;;11.70;99.90;;;;;;5139243;27;19927;-58
2021/12/30 13:40:35;;;;;;;;;;;11.70;99.90;;;;;;5128833;27;19927;-62
2021/12/30 13:43:08;;;;;;;;;;;11.70;99.90;;;;;;5132031;27;19927;-58
2021/12/30 13:46:03;;;;;;;;;;;11.70;99.90;;;;;;5132024;27;20018;-60
2021/12/30 13:48:30;;;;;;;;;;;11.70;99.90;;;;;;5119336;27;19933;-59
2021/12/30 13:50:59;;;;;;;;;;;11.70;99.90;;;;;;5133567;27;20034;-57
2021/12/30 13:53:29;;;;;;;;;;;11.70;99.90;;;;;;5127260;27;19952;-59
2021/12/30 13:55:57;;;;;;;;;;;11.60;99.90;;;;;;5127967;27;19927;-57
2021/12/30 13:58:24;;;;;;;;;;;11.60;99.90;;;;;;5144057;27;19942;-58
2021/12/30 14:00:51;;;;;;;;;;;11.60;99.90;;;;;;5140194;27;19945;-57
2021/12/30 14:03:23;;;;;;;;;;;11.60;99.90;;;;;;5130013;27;19941;-58
2021/12/30 14:05:49;;;;;;;;;;;11.60;99.90;;;;;;5140872;27;19938;-57
2021/12/30 14:08:20;;;;;;;;;;;11.70;99.90;;;;;;5131915;27;19927;-55
2021/12/30 14:10:47;;;;;;;;;;;11.60;99.90;;;;;;5142186;27;19934;-57
2021/12/30 14:13:13;;;;;;;;;;;11.60;99.90;;;;;;5137008;27;19937;-64
2021/12/30 14:15:39;;;;;;;;;;;11.60;99.90;;;;;;5139830;27;19928;-64
2021/12/30 14:18:06;;;;;;;;;;;11.60;99.90;;;;;;5143529;27;19934;-59
2021/12/30 14:20:32;;;;;;;;;;;11.60;99.90;;;;;;5141898;27;20303;-59
2021/12/30 14:22:58;;;;;;;;;;;11.60;99.90;;;;;;5139877;27;19927;-58
2021/12/30 14:25:28;;;;;;;;;;;11.60;99.90;;;;;;5143902;27;19927;-56